Broadway, NJ

7:42 AM EDT on March 23, 2017 (GMT -0400)
Broadway, NJ | | Change Station

Elev 384 ft 40.73 °N, 75.04 °W | Updated 2 minutes ago

Clear
Clear
17.9 °F
Feels Like 18 °F
N
0.0
Wind Variable Wind from SSW
Gusts 3.0 mph

Today
High -- | Low -- °F
--% Chance of Precip.
Yesterday
High -- | Low -- °F
Precip. -- in
Pressure 30.58 in
Visibility 10.0 miles
Clouds Clear
Windchill 18 °F
Dew Point 10 °F
Humidity 69%
Rainfall 0.00 in
Snow Depth Not available.
6:58 AM 7:15 PM
Waning Crescent, 24% visible
METAR KSMQ 231053Z AUTO 00000KT 10SM CLR M08/M13 A3057 RMK AO2 SLP354 T10831128
Pressure 30.58 in
Visibility 10.0 miles
Clouds Clear
Windchill 18 °F
Dew Point 10 °F
Humidity 69%
Rainfall 0.00 in
Snow Depth Not available.
6:58 AM 7:15 PM
Waning Crescent, 24% visible
METAR KSMQ 231053Z AUTO 00000KT 10SM CLR M08/M13 A3057 RMK AO2 SLP354 T10831128

Get Severe Weather Alerts

Thanks for signing up!

Be on the lookout for a verification email in your inbox.

You'll start receiving the daily forecast at 8 AM.

×

10-Day Weather Forecast

Almanac

Astronomy

Mar. 23, 2017 Rise Set
Actual Time
Civil Twilight
Nautical Twilight
Astronomical Twilight
Moon
Length of Visible Light
Length of Day
Tomorrow will be .
, % of the Moon is Illuminated

Today's Extremes

State Highs State Lows

Community

WunderPhotos

Upload Photos

1,962,540 photos uploaded!

WunderBlog® & News

Nearby

Air Quality

  Air Quality AQ Index Pollutant
Not available.

Snow Depth

Station Depth Elevation

Earthquake Activity

City Distance Mag. Time & Date
Minimum magnitude displayed is 2.5.

Earthquake Activity

City Distance Mag. Time & Date
Minimum magnitude displayed is 2.5.

Coastal Water Temperatures

Place Temperature

Stations

Nearby Weather Stations

Station Location Temp. Windchill Dew Point Humidity Wind Precip. Elev Updated Type
                   

Watches & Warnings

There are currently no watches in effect.